Terminal Aerodrome Forecast
Issued by NWS Cleveland, OH

Home | Current Version | Previous Version | Graphics & Text | Print | Product List | Glossary On
Versions: 1 2 3 4 5 6 7 8 9 10 11 12 13 14 15 16 17 18 19 20 21 22 23 24
143
FTUS41 KCLE 251958 AAA
TAFCLE
TAF AMD
KCLE 251958Z 2520/2624 03010KT P6SM SKC
     FM260500 16010KT P6SM SCT040 BKN250
     FM261100 19010KT P6SM VCSH OVC035
     FM261600 26012G20KT 5SM -SHRA SCT015 OVC030
     FM262200 24010KT P6SM SCT030 BKN120=

USA.gov is the U.S. government's official web portal to all federal, state and local government web resources and services.